Flight Track Log - Related Links

Times and Time Zones

All times are in EDT time to prevent confusion due to time zone crossing. See the SWA662 flight status page for this flight to view local times or setup timezone preferences in your user account.

Time Position Orientation Groundspeed Altitude Reporting Facility
EDT Latitude Longitude Course Direction KTS MPH feet Rate Location/Type
Tue 11:11:50 PM 33.9500 -118.4833 253° West 209 241 2,700  Level Southern California TRACON
Tue 11:12:43 PM 33.9328 -118.5508 253° West 228 262 5,600 3,339 Climbing Los Angeles Center
Tue 11:13:45 PM 33.8842 -118.5333 163° South 235 270 9,100 2,516 Climbing Los Angeles Center
Tue 11:14:47 PM 33.9222 -118.4553 60° Northeast 278 320 10,800 2,177 Climbing Los Angeles Center
Tue 11:15:49 PM 33.9744 -118.3589 57° Northeast 335 386 13,600 2,878 Climbing Los Angeles Center
Tue 11:16:50 PM 34.0314 -118.2606 55° Northeast 353 406 16,700 2,927 Climbing Los Angeles Center
Tue 11:17:52 PM 34.0906 -118.1558 56° Northeast 369 425 19,600 2,468 Climbing Los Angeles Center
Tue 11:18:54 PM 34.1522 -118.0464 56° Northeast 386 444 21,800 2,098 Climbing Los Angeles Center
Tue 11:19:55 PM 34.2189 -117.9281 56° Northeast 417 480 23,900 2,293 Climbing Los Angeles Center
Tue 11:20:57 PM 34.2861 -117.8067 56° Northeast 432 497 26,500 2,177 Climbing Los Angeles Center
Tue 11:21:59 PM 34.3536 -117.6864 56° Northeast 432 497 28,400 1,707 Climbing Los Angeles Center
Tue 11:23:00 PM 34.4289 -117.5508 56° Northeast 441 507 30,000 1,463 Climbing Los Angeles Center
Tue 11:24:02 PM 34.5114 -117.4286 51° Northeast 466 536 31,400 1,403 Climbing Los Angeles Center
Tue 11:25:04 PM 34.5961 -117.3075 50° Northeast 475 547 32,900 1,415 Climbing Los Angeles Center
Tue 11:26:05 PM 34.6997 -117.1622 49° Northeast 478 550 34,300 1,317 Climbing Los Angeles Center
Tue 11:27:07 PM 34.7886 -117.0356 49° Northeast 493 567 35,600 1,355 Climbing Los Angeles Center
Tue 11:28:09 PM 34.8761 -116.9100 50° Northeast 490 564 37,100 1,317 Climbing Los Angeles Center
Tue 11:29:10 PM 34.9633 -116.7864 49° Northeast 483 556 38,300 927 Climbing Los Angeles Center
Tue 11:30:12 PM 35.0503 -116.6622 49° Northeast 483 556 39,000 339 Climbing Los Angeles Center
Tue 11:31:14 PM 35.1378 -116.5367 50° Northeast 487 560 39,000  Level Los Angeles Center
Tue 11:32:15 PM 35.2439 -116.3867 49° Northeast 488 562 39,000  Level Los Angeles Center
Tue 11:33:17 PM 35.3303 -116.2608 50° Northeast 487 560 39,000  Level Los Angeles Center
Tue 11:34:19 PM 35.4147 -116.1342 51° Northeast 482 555 39,000  Level Los Angeles Center
Tue 11:35:20 PM 35.5044 -116.0097 48° Northeast 488 562 39,000  Level Los Angeles Center
Tue 11:36:22 PM 35.5961 -115.8742 50° Northeast 486 559 39,000  Level Los Angeles Center
Tue 11:37:24 PM 35.6808 -115.7494 50° Northeast 479 551 39,000  Level Los Angeles Center
Tue 11:38:25 PM 35.7656 -115.6242 50° Northeast 478 550 39,000  Level Los Angeles Center
Tue 11:39:27 PM 35.8503 -115.5008 50° Northeast 475 547 39,000  Level Los Angeles Center
Tue 11:40:29 PM 35.9492 -115.3533 50° Northeast 471 542 39,000  Level Los Angeles Center
Tue 11:41:30 PM 36.0297 -115.2333 50° Northeast 459 528 39,000  Level Los Angeles Center
Tue 11:42:32 PM 36.0986 -115.0994 57° Northeast 468 539 39,000  Level Los Angeles Center
Tue 11:43:34 PM 36.1475 -114.9517 68° East 468 539 39,000  Level Los Angeles Center
Tue 11:44:35 PM 36.2003 -114.8058 66° East 467 537 39,000  Level Los Angeles Center
Tue 11:45:37 PM 36.2514 -114.6581 67° East 469 540 39,000  Level Los Angeles Center
Tue 11:46:38 PM 36.3131 -114.4808 67° East 468 539 39,000  Level Los Angeles Center
Tue 11:47:40 PM 36.3644 -114.3339 66° East 468 539 39,000  Level Los Angeles Center
Tue 11:48:42 PM 36.4158 -114.1858 67° East 468 539 39,000  Level Los Angeles Center
Tue 11:49:43 PM 36.4669 -114.0372 67° East 468 539 39,000  Level Los Angeles Center
Tue 11:50:45 PM 36.5222 -113.8775 67° East 470 541 39,000  Level Los Angeles Center
Tue 11:51:47 PM 36.5728 -113.7292 67° East 469 540 39,000  Level Los Angeles Center
Tue 11:52:48 PM 36.6233 -113.5789 67° East 471 542 39,000  Level Los Angeles Center
Tue 11:53:50 PM 36.6739 -113.4292 67° East 471 542 39,000  Level Los Angeles Center
Tue 11:54:51 PM 36.7242 -113.2806 67° East 469 540 39,000  Level Los Angeles Center
Tue 11:55:53 PM 36.7836 -113.1011 67° East 469 540 39,000  Level Los Angeles Center
Tue 11:56:55 PM 36.8336 -112.9525 67° East 468 539 39,000  Level Los Angeles Center
Tue 11:57:56 PM 36.8825 -112.8042 68° East 467 537 39,000  Level Los Angeles Center
Tue 11:58:58 PM 36.9303 -112.6561 68° East 465 535 39,000  Level Los Angeles Center
Wed 12:00:01 AM 36.9803 -112.5094 67° East 463 533 39,000  Level Los Angeles Center
Wed 12:01:03 AM 37.0275 -112.3617 68° East 462 532 39,000  Level Los Angeles Center
Wed 12:02:16 AM 37.0844 -112.1839 68° East 462 532 39,000  Level Los Angeles Center
Wed 12:03:18 AM 37.1433 -112.0064 67° East 463 533 39,000  Level Los Angeles Center
Wed 12:04:20 AM 37.1900 -111.8569 69° East 463 533 39,000  Level Los Angeles Center
Wed 12:04:36 AM 37.1989 -111.8275 69° East 463 533 39,000  Level Denver Center
Wed 12:05:37 AM 37.2475 -111.6800 67° East 460 529 39,000  Level Denver Center
Wed 12:06:50 AM 37.3028 -111.5017 69° East 461 531 39,000  Level Denver Center
Wed 12:07:51 AM 37.3606 -111.3225 68° East 462 532 39,000  Level Denver Center
Wed 12:08:52 AM 37.4072 -111.1725 69° East 462 532 39,000  Level Denver Center
Wed 12:09:53 AM 37.4539 -111.0194 69° East 469 540 39,000  Level Denver Center
Wed 12:10:54 AM 37.5008 -110.8678 69° East 468 539 39,000  Level Denver Center
Wed 12:11:55 AM 37.5478 -110.7147 69° East 470 541 39,000  Level Denver Center
Wed 12:12:56 AM 37.5947 -110.5611 69° East 472 543 39,000  Level Denver Center
Wed 12:13:57 AM 37.6444 -110.3956 69° East 475 547 39,000  Level Denver Center
Wed 12:14:58 AM 37.6894 -110.2486 69° East 470 541 39,000  Level Denver Center
Wed 12:15:59 AM 37.7417 -110.0758 69° East 471 542 39,000  Level Denver Center
Wed 12:17:00 AM 37.7847 -109.9283 70° East 468 539 39,000  Level Denver Center
Wed 12:18:01 AM 37.8289 -109.7803 69° East 469 540 39,000  Level Denver Center
Wed 12:19:01 AM 37.8894 -109.6156 65° Northeast 462 532 39,000  Level Denver Center
Wed 12:20:02 AM 37.9442 -109.4747 64° Northeast 465 535 39,000  Level Denver Center
Wed 12:21:03 AM 37.9986 -109.3339 64° Northeast 464 534 39,000  Level Denver Center
Wed 12:22:04 AM 38.0606 -109.1722 64° Northeast 472 543 39,000  Level Denver Center
Wed 12:23:05 AM 38.1153 -109.0292 64° Northeast 474 545 39,000  Level Denver Center
Wed 12:24:06 AM 38.1789 -108.8622 64° Northeast 472 543 39,000  Level Denver Center
Wed 12:25:07 AM 38.2231 -108.7453 64° Northeast 464 534 39,000  Level Denver Center
Wed 12:26:08 AM 38.2858 -108.5800 64° Northeast 464 534 39,000  Level Denver Center
Wed 12:27:08 AM 38.3492 -108.4142 64° Northeast 467 537 39,000  Level Denver Center
Wed 12:28:09 AM 38.4025 -108.2714 64° Northeast 468 539 39,000  Level Denver Center
Wed 12:29:10 AM 38.4558 -108.1269 65° Northeast 471 542 39,000  Level Denver Center
Wed 12:30:11 AM 38.5175 -107.9589 65° Northeast 470 541 39,000  Level Denver Center
Wed 12:31:12 AM 38.5711 -107.8150 64° Northeast 470 541 39,000  Level Denver Center
Wed 12:32:12 AM 38.6233 -107.6708 65° Northeast 469 540 39,000 -397 Level Denver Center
Wed 12:33:13 AM 38.6847 -107.5036 65° Northeast 467 537 38,200 -836 Descending Denver Center
Wed 12:34:14 AM 38.7367 -107.3589 65° Northeast 469 540 37,300 -885 Descending Denver Center
Wed 12:35:15 AM 38.7886 -107.2153 65° Northeast 467 537 36,400 -984 Descending Denver Center
Wed 12:36:16 AM 38.8469 -107.0514 65° Northeast 469 540 35,300 -694 Descending Denver Center
Wed 12:37:16 AM 38.9003 -106.9022 65° Northeast 467 537 35,000 -149 Descending Denver Center
Wed 12:38:17 AM 38.9531 -106.7575 65° Northeast 467 537 35,000  Level Denver Center
Wed 12:39:18 AM 39.0133 -106.5881 65° Northeast 467 537 35,000 -446 Level Denver Center
Wed 12:40:18 AM 39.0631 -106.4422 66° East 467 537 34,100 -2,033 Descending Denver Center
Wed 12:41:19 AM 39.1231 -106.2717 66° East 468 539 30,900 -2,852 Descending Denver Center
Wed 12:42:20 AM 39.1756 -106.1208 66° East 476 548 28,300 -2,557 Descending Denver Center
Wed 12:43:21 AM 39.2281 -105.9683 66° East 468 539 25,700 -2,529 Descending Denver Center
Wed 12:44:21 AM 39.2783 -105.8208 66° East 454 522 23,200 -2,430 Descending Denver Center
Wed 12:45:22 AM 39.3269 -105.6800 66° East 435 501 20,800 -1,967 Descending Denver Center
Wed 12:46:23 AM 39.3739 -105.5428 66° East 421 484 19,200 -1,339 Descending Denver Center
Wed 12:47:23 AM 39.3925 -105.4025 80° East 402 463 18,100 -992 Descending Denver Center
Wed 12:48:24 AM 39.4117 -105.2664 80° East 365 420 17,200 -1,041 Descending Denver Center
Wed 12:49:24 AM 39.4386 -105.1503 73° East 340 391 16,000 -1,140 Descending Denver Center
Wed 12:50:25 AM 39.4658 -105.0353 73° East 335 386 14,900 -836 Descending Denver Center
Wed 12:51:26 AM 39.4667 -104.9244 89° East 310 357 14,300 -744 Descending Denver Center
Wed 12:52:26 AM 39.4547 -104.8172 98° East 302 348 13,400 -843 Descending Denver Center
Wed 12:53:27 AM 39.4433 -104.7147 98° East 290 334 12,600 -843 Descending Denver Center
Wed 12:54:27 AM 39.4456 -104.6239 88° East 272 313 11,700 -1,041 Descending Denver Center
Wed 12:55:28 AM 39.5069 -104.6286 357° North 235 270 10,500 -1,279 Descending Denver Center
Wed 12:56:29 AM 39.5731 -104.6172 North 234 269 9,100 -1,140 Descending Denver Center
Wed 12:57:29 AM 39.6294 -104.5856 23° Northeast 225 259 8,200 -595 Descending Denver Center
Wed 12:58:30 AM 39.6778 -104.6003 347° North 203 234 7,900 -347 Descending Denver Center
Wed 12:59:30 AM 39.7175 -104.6361 325° Northwest 172 198 7,500 -595 Descending Denver Center
Wed 01:00:31 AM 39.7617 -104.6431 353° North 156 180 6,700 -793 Descending Denver Center
Wed 01:01:31 AM 39.8028 -104.6422 North 149 171 5,900 -744 Descending Denver Center
Wed 01:02:32 AM 39.8400 -104.6417 North 148 170 5,200 -689 Descending Denver Center
Wed 01:04:00 AM 39.8500 -104.6667 North  Level FlightAware Approximate
Wed 01:11:00 AM 39.8617 -104.6732 North  Level Estimated
Wed 01:12:00 AM 39.8617 -104.6732 North  Level Estimated

Login

Don't have an account? Register now (free) for customized features, flight alerts, and more!